sensor_id;sensor_type;location;lat;lon;timestamp;temperature;humidity
8043;DHT22;4064;48.132;11.366;2022-11-20T00:01:36;5.00;99.90
8043;DHT22;4064;48.132;11.366;2022-11-20T00:04:03;5.00;99.90
8043;DHT22;4064;48.132;11.366;2022-11-20T00:06:29;5.00;99.90
8043;DHT22;4064;48.132;11.366;2022-11-20T00:08:56;5.00;99.90
8043;DHT22;4064;48.132;11.366;2022-11-20T00:11:24;5.00;99.90
8043;DHT22;4064;48.132;11.366;2022-11-20T00:13:54;5.00;99.90
8043;DHT22;4064;48.132;11.366;2022-11-20T00:16:23;5.10;99.90
8043;DHT22;4064;48.132;11.366;2022-11-20T00:18:49;5.10;99.90
8043;DHT22;4064;48.132;11.366;2022-11-20T00:21:18;5.10;99.90
8043;DHT22;4064;48.132;11.366;2022-11-20T00:23:44;5.00;99.90
8043;DHT22;4064;48.132;11.366;2022-11-20T00:26:15;5.00;99.90
8043;DHT22;4064;48.132;11.366;2022-11-20T00:28:42;5.10;99.90
8043;DHT22;4064;48.132;11.366;2022-11-20T00:31:12;5.10;99.90
8043;DHT22;4064;48.132;11.366;2022-11-20T00:33:38;5.00;99.90
8043;DHT22;4064;48.132;11.366;2022-11-20T00:36:12;5.00;99.90
8043;DHT22;4064;48.132;11.366;2022-11-20T00:38:38;5.00;99.90
8043;DHT22;4064;48.132;11.366;2022-11-20T00:41:07;5.00;99.90
8043;DHT22;4064;48.132;11.366;2022-11-20T00:43:33;5.00;99.90
8043;DHT22;4064;48.132;11.366;2022-11-20T00:45:59;5.00;99.90
8043;DHT22;4064;48.132;11.366;2022-11-20T00:48:26;5.00;99.90
8043;DHT22;4064;48.132;11.366;2022-11-20T00:50:52;5.00;99.90
8043;DHT22;4064;48.132;11.366;2022-11-20T00:53:18;5.00;99.90
8043;DHT22;4064;48.132;11.366;2022-11-20T00:55:55;5.00;99.90
8043;DHT22;4064;48.132;11.366;2022-11-20T00:58:22;4.90;99.90
8043;DHT22;4064;48.132;11.366;2022-11-20T01:00:48;5.00;99.90
8043;DHT22;4064;48.132;11.366;2022-11-20T01:03:18;5.00;99.90
8043;DHT22;4064;48.132;11.366;2022-11-20T01:05:44;4.90;99.90
8043;DHT22;4064;48.132;11.366;2022-11-20T01:08:09;4.90;99.90
8043;DHT22;4064;48.132;11.366;2022-11-20T01:10:36;5.00;99.90
8043;DHT22;4064;48.132;11.366;2022-11-20T01:13:02;5.00;99.90
8043;DHT22;4064;48.132;11.366;2022-11-20T01:15:45;5.00;99.90
8043;DHT22;4064;48.132;11.366;2022-11-20T01:18:11;5.00;99.90
8043;DHT22;4064;48.132;11.366;2022-11-20T01:20:37;5.10;99.90
8043;DHT22;4064;48.132;11.366;2022-11-20T01:23:03;5.00;99.90
8043;DHT22;4064;48.132;11.366;2022-11-20T01:25:29;5.00;99.90
8043;DHT22;4064;48.132;11.366;2022-11-20T01:27:55;5.10;99.90
8043;DHT22;4064;48.132;11.366;2022-11-20T01:30:21;5.00;99.90
8043;DHT22;4064;48.132;11.366;2022-11-20T01:32:46;5.10;99.90
8043;DHT22;4064;48.132;11.366;2022-11-20T01:35:12;5.10;99.90
8043;DHT22;4064;48.132;11.366;2022-11-20T01:37:37;5.10;99.90
8043;DHT22;4064;48.132;11.366;2022-11-20T01:40:04;5.10;99.90
8043;DHT22;4064;48.132;11.366;2022-11-20T01:42:29;5.10;99.90
8043;DHT22;4064;48.132;11.366;2022-11-20T01:48:18;5.10;99.90
8043;DHT22;4064;48.132;11.366;2022-11-20T01:50:44;5.20;99.90
8043;DHT22;4064;48.132;11.366;2022-11-20T01:53:15;5.20;99.90
8043;DHT22;4064;48.132;11.366;2022-11-20T01:55:48;5.20;99.90
8043;DHT22;4064;48.132;11.366;2022-11-20T01:58:15;5.20;99.90
8043;DHT22;4064;48.132;11.366;2022-11-20T02:00:42;5.20;99.90
8043;DHT22;4064;48.132;11.366;2022-11-20T02:03:12;5.20;99.90
8043;DHT22;4064;48.132;11.366;2022-11-20T02:05:51;5.10;99.90
8043;DHT22;4064;48.132;11.366;2022-11-20T02:08:19;5.10;99.90
8043;DHT22;4064;48.132;11.366;2022-11-20T02:10:46;5.10;99.90
8043;DHT22;4064;48.132;11.366;2022-11-20T02:13:11;5.10;99.90
8043;DHT22;4064;48.132;11.366;2022-11-20T02:15:55;5.10;99.90
8043;DHT22;4064;48.132;11.366;2022-11-20T02:18:22;5.10;99.90
8043;DHT22;4064;48.132;11.366;2022-11-20T02:20:51;5.10;99.90
8043;DHT22;4064;48.132;11.366;2022-11-20T02:23:32;5.10;99.90
8043;DHT22;4064;48.132;11.366;2022-11-20T02:26:03;5.10;99.90
8043;DHT22;4064;48.132;11.366;2022-11-20T02:28:31;5.10;99.90
8043;DHT22;4064;48.132;11.366;2022-11-20T02:30:56;5.10;99.90
8043;DHT22;4064;48.132;11.366;2022-11-20T02:33:22;5.10;99.90
8043;DHT22;4064;48.132;11.366;2022-11-20T02:35:48;5.10;99.90
8043;DHT22;4064;48.132;11.366;2022-11-20T02:38:14;5.10;99.90
8043;DHT22;4064;48.132;11.366;2022-11-20T02:40:40;5.10;99.90
8043;DHT22;4064;48.132;11.366;2022-11-20T02:43:06;5.10;99.90
8043;DHT22;4064;48.132;11.366;2022-11-20T02:45:32;5.10;99.90
8043;DHT22;4064;48.132;11.366;2022-11-20T02:47:58;5.10;99.90
8043;DHT22;4064;48.132;11.366;2022-11-20T02:50:23;5.10;99.90
8043;DHT22;4064;48.132;11.366;2022-11-20T02:52:49;5.00;99.90
8043;DHT22;4064;48.132;11.366;2022-11-20T02:55:15;5.10;99.90
8043;DHT22;4064;48.132;11.366;2022-11-20T02:57:40;5.00;99.90
8043;DHT22;4064;48.132;11.366;2022-11-20T03:00:08;5.10;99.90
8043;DHT22;4064;48.132;11.366;2022-11-20T03:02:34;5.10;99.90
8043;DHT22;4064;48.132;11.366;2022-11-20T03:04:59;5.10;99.90
8043;DHT22;4064;48.132;11.366;2022-11-20T03:07:25;5.10;99.90
8043;DHT22;4064;48.132;11.366;2022-11-20T03:09:51;5.10;99.90
8043;DHT22;4064;48.132;11.366;2022-11-20T03:12:16;5.10;99.90
8043;DHT22;4064;48.132;11.366;2022-11-20T03:14:42;5.10;99.90
8043;DHT22;4064;48.132;11.366;2022-11-20T03:17:08;5.10;99.90
8043;DHT22;4064;48.132;11.366;2022-11-20T03:19:33;5.10;99.90
8043;DHT22;4064;48.132;11.366;2022-11-20T03:22:00;5.10;99.90
8043;DHT22;4064;48.132;11.366;2022-11-20T03:24:26;5.10;99.90
8043;DHT22;4064;48.132;11.366;2022-11-20T03:26:51;5.10;99.90
8043;DHT22;4064;48.132;11.366;2022-11-20T03:29:17;5.10;99.90
8043;DHT22;4064;48.132;11.366;2022-11-20T03:31:43;5.10;99.90
8043;DHT22;4064;48.132;11.366;2022-11-20T03:34:10;5.10;99.90
8043;DHT22;4064;48.132;11.366;2022-11-20T03:36:40;5.10;99.90
8043;DHT22;4064;48.132;11.366;2022-11-20T03:39:06;5.00;99.90
8043;DHT22;4064;48.132;11.366;2022-11-20T03:41:36;5.00;99.90
8043;DHT22;4064;48.132;11.366;2022-11-20T03:44:04;5.00;99.90
8043;DHT22;4064;48.132;11.366;2022-11-20T03:46:29;5.00;99.90
8043;DHT22;4064;48.132;11.366;2022-11-20T03:48:56;5.00;99.90
8043;DHT22;4064;48.132;11.366;2022-11-20T03:51:26;5.00;99.90
8043;DHT22;4064;48.132;11.366;2022-11-20T03:53:55;5.00;99.90
8043;DHT22;4064;48.132;11.366;2022-11-20T03:56:26;5.00;99.90
8043;DHT22;4064;48.132;11.366;2022-11-20T03:58:52;5.00;99.90
8043;DHT22;4064;48.132;11.366;2022-11-20T04:01:20;5.00;99.90
8043;DHT22;4064;48.132;11.366;2022-11-20T04:03:47;5.00;99.90
8043;DHT22;4064;48.132;11.366;2022-11-20T04:06:15;5.00;99.90
8043;DHT22;4064;48.132;11.366;2022-11-20T04:08:41;5.00;99.90
8043;DHT22;4064;48.132;11.366;2022-11-20T04:11:15;5.00;99.90
8043;DHT22;4064;48.132;11.366;2022-11-20T04:13:42;5.00;99.90
8043;DHT22;4064;48.132;11.366;2022-11-20T04:16:10;5.00;99.90
8043;DHT22;4064;48.132;11.366;2022-11-20T04:18:36;5.00;99.90
8043;DHT22;4064;48.132;11.366;2022-11-20T04:21:02;5.00;99.90
8043;DHT22;4064;48.132;11.366;2022-11-20T04:23:28;5.00;99.90
8043;DHT22;4064;48.132;11.366;2022-11-20T04:25:54;5.00;99.90
8043;DHT22;4064;48.132;11.366;2022-11-20T04:28:20;5.00;99.90
8043;DHT22;4064;48.132;11.366;2022-11-20T04:30:46;5.00;99.90
8043;DHT22;4064;48.132;11.366;2022-11-20T04:33:11;5.00;99.90
8043;DHT22;4064;48.132;11.366;2022-11-20T04:35:37;5.00;99.90
8043;DHT22;4064;48.132;11.366;2022-11-20T04:38:04;5.00;99.90
8043;DHT22;4064;48.132;11.366;2022-11-20T04:40:30;4.90;99.90
8043;DHT22;4064;48.132;11.366;2022-11-20T04:42:56;4.90;99.90
8043;DHT22;4064;48.132;11.366;2022-11-20T04:45:24;5.00;99.90
8043;DHT22;4064;48.132;11.366;2022-11-20T04:47:50;4.90;99.90
8043;DHT22;4064;48.132;11.366;2022-11-20T04:50:16;5.00;99.90
8043;DHT22;4064;48.132;11.366;2022-11-20T04:52:41;5.00;99.90
8043;DHT22;4064;48.132;11.366;2022-11-20T04:55:07;5.00;99.90
8043;DHT22;4064;48.132;11.366;2022-11-20T04:57:33;5.00;99.90
8043;DHT22;4064;48.132;11.366;2022-11-20T04:59:59;4.90;99.90
8043;DHT22;4064;48.132;11.366;2022-11-20T05:02:24;4.90;99.90
8043;DHT22;4064;48.132;11.366;2022-11-20T05:04:50;4.90;99.90
8043;DHT22;4064;48.132;11.366;2022-11-20T05:07:16;4.90;99.90
8043;DHT22;4064;48.132;11.366;2022-11-20T05:09:41;4.90;99.90
8043;DHT22;4064;48.132;11.366;2022-11-20T05:12:08;4.90;99.90
8043;DHT22;4064;48.132;11.366;2022-11-20T05:14:34;4.90;99.90
8043;DHT22;4064;48.132;11.366;2022-11-20T05:16:59;4.90;99.90
8043;DHT22;4064;48.132;11.366;2022-11-20T05:19:25;5.00;99.90
8043;DHT22;4064;48.132;11.366;2022-11-20T05:21:51;4.90;99.90
8043;DHT22;4064;48.132;11.366;2022-11-20T05:24:16;4.90;99.90
8043;DHT22;4064;48.132;11.366;2022-11-20T05:26:42;4.90;99.90
8043;DHT22;4064;48.132;11.366;2022-11-20T05:29:12;4.80;99.90
8043;DHT22;4064;48.132;11.366;2022-11-20T05:31:40;4.80;99.90
8043;DHT22;4064;48.132;11.366;2022-11-20T05:34:06;4.80;99.90
8043;DHT22;4064;48.132;11.366;2022-11-20T05:36:32;4.80;99.90
8043;DHT22;4064;48.132;11.366;2022-11-20T05:38:57;4.80;99.90
8043;DHT22;4064;48.132;11.366;2022-11-20T05:41:23;4.80;99.90
8043;DHT22;4064;48.132;11.366;2022-11-20T05:43:49;4.80;99.90
8043;DHT22;4064;48.132;11.366;2022-11-20T05:46:20;4.80;99.90
8043;DHT22;4064;48.132;11.366;2022-11-20T05:48:46;4.80;99.90
8043;DHT22;4064;48.132;11.366;2022-11-20T05:51:16;4.80;99.90
8043;DHT22;4064;48.132;11.366;2022-11-20T05:53:42;4.80;99.90
8043;DHT22;4064;48.132;11.366;2022-11-20T05:56:10;4.70;99.90
8043;DHT22;4064;48.132;11.366;2022-11-20T05:58:37;4.70;99.90
8043;DHT22;4064;48.132;11.366;2022-11-20T06:01:12;4.70;99.90
8043;DHT22;4064;48.132;11.366;2022-11-20T06:03:38;4.60;99.90
8043;DHT22;4064;48.132;11.366;2022-11-20T06:06:05;4.60;99.90
8043;DHT22;4064;48.132;11.366;2022-11-20T06:08:32;4.60;99.90
8043;DHT22;4064;48.132;11.366;2022-11-20T06:10:57;4.60;99.90
8043;DHT22;4064;48.132;11.366;2022-11-20T06:13:23;4.50;99.90
8043;DHT22;4064;48.132;11.366;2022-11-20T06:15:51;4.50;99.90
8043;DHT22;4064;48.132;11.366;2022-11-20T06:18:17;4.40;99.90
8043;DHT22;4064;48.132;11.366;2022-11-20T06:20:42;4.40;99.90
8043;DHT22;4064;48.132;11.366;2022-11-20T06:23:08;4.30;99.90
8043;DHT22;4064;48.132;11.366;2022-11-20T06:25:37;4.30;99.90
8043;DHT22;4064;48.132;11.366;2022-11-20T06:28:03;4.30;99.90
8043;DHT22;4064;48.132;11.366;2022-11-20T06:30:29;4.30;99.90
8043;DHT22;4064;48.132;11.366;2022-11-20T06:32:55;4.30;99.90
8043;DHT22;4064;48.132;11.366;2022-11-20T06:35:20;4.30;99.90
8043;DHT22;4064;48.132;11.366;2022-11-20T06:37:46;4.30;99.90
8043;DHT22;4064;48.132;11.366;2022-11-20T06:40:12;4.30;99.90
8043;DHT22;4064;48.132;11.366;2022-11-20T06:42:37;4.30;99.90
8043;DHT22;4064;48.132;11.366;2022-11-20T06:45:03;4.30;99.90
8043;DHT22;4064;48.132;11.366;2022-11-20T06:47:29;4.30;99.90
8043;DHT22;4064;48.132;11.366;2022-11-20T06:49:54;4.40;99.90
8043;DHT22;4064;48.132;11.366;2022-11-20T06:52:20;4.50;99.90
8043;DHT22;4064;48.132;11.366;2022-11-20T06:54:46;4.50;99.90
8043;DHT22;4064;48.132;11.366;2022-11-20T06:57:11;4.50;99.90
8043;DHT22;4064;48.132;11.366;2022-11-20T06:59:37;4.60;99.90
8043;DHT22;4064;48.132;11.366;2022-11-20T07:02:02;4.70;99.90
8043;DHT22;4064;48.132;11.366;2022-11-20T07:04:28;4.70;99.90
8043;DHT22;4064;48.132;11.366;2022-11-20T07:06:54;4.80;99.90
8043;DHT22;4064;48.132;11.366;2022-11-20T07:09:19;4.80;99.90
8043;DHT22;4064;48.132;11.366;2022-11-20T07:11:45;4.90;99.90
8043;DHT22;4064;48.132;11.366;2022-11-20T07:14:10;4.90;99.90
8043;DHT22;4064;48.132;11.366;2022-11-20T07:16:36;4.90;99.90
8043;DHT22;4064;48.132;11.366;2022-11-20T07:19:02;4.90;99.90
8043;DHT22;4064;48.132;11.366;2022-11-20T07:21:27;5.00;99.90
8043;DHT22;4064;48.132;11.366;2022-11-20T07:23:53;5.00;99.90
8043;DHT22;4064;48.132;11.366;2022-11-20T07:26:18;5.00;99.90
8043;DHT22;4064;48.132;11.366;2022-11-20T07:28:45;5.10;99.90
8043;DHT22;4064;48.132;11.366;2022-11-20T07:31:10;5.10;99.90
8043;DHT22;4064;48.132;11.366;2022-11-20T07:33:38;5.10;99.90
8043;DHT22;4064;48.132;11.366;2022-11-20T07:36:04;5.10;99.90
8043;DHT22;4064;48.132;11.366;2022-11-20T07:38:30;5.10;99.90
8043;DHT22;4064;48.132;11.366;2022-11-20T07:40:58;5.10;99.90
8043;DHT22;4064;48.132;11.366;2022-11-20T07:43:27;5.20;99.90
8043;DHT22;4064;48.132;11.366;2022-11-20T07:45:55;5.20;99.90
8043;DHT22;4064;48.132;11.366;2022-11-20T07:48:22;5.30;99.90
8043;DHT22;4064;48.132;11.366;2022-11-20T07:50:52;5.20;99.90
8043;DHT22;4064;48.132;11.366;2022-11-20T07:53:18;5.30;99.90
8043;DHT22;4064;48.132;11.366;2022-11-20T07:55:46;5.30;99.90
8043;DHT22;4064;48.132;11.366;2022-11-20T07:58:12;5.30;99.90
8043;DHT22;4064;48.132;11.366;2022-11-20T08:00:42;5.30;99.90
8043;DHT22;4064;48.132;11.366;2022-11-20T08:03:08;5.30;99.90
8043;DHT22;4064;48.132;11.366;2022-11-20T08:05:34;5.40;99.90
8043;DHT22;4064;48.132;11.366;2022-11-20T08:08:03;5.40;99.90
8043;DHT22;4064;48.132;11.366;2022-11-20T08:10:29;5.50;99.90
8043;DHT22;4064;48.132;11.366;2022-11-20T08:12:54;5.60;99.90
8043;DHT22;4064;48.132;11.366;2022-11-20T08:15:39;5.60;99.90
8043;DHT22;4064;48.132;11.366;2022-11-20T08:18:10;5.70;99.90
8043;DHT22;4064;48.132;11.366;2022-11-20T08:20:37;5.70;99.90
8043;DHT22;4064;48.132;11.366;2022-11-20T08:23:07;5.80;99.90
8043;DHT22;4064;48.132;11.366;2022-11-20T08:25:34;5.90;99.90
8043;DHT22;4064;48.132;11.366;2022-11-20T08:28:02;5.90;99.90
8043;DHT22;4064;48.132;11.366;2022-11-20T08:30:28;5.90;99.90
8043;DHT22;4064;48.132;11.366;2022-11-20T08:32:54;6.00;99.90
8043;DHT22;4064;48.132;11.366;2022-11-20T08:35:21;6.00;99.90
8043;DHT22;4064;48.132;11.366;2022-11-20T08:37:47;6.10;99.90
8043;DHT22;4064;48.132;11.366;2022-11-20T08:40:13;6.10;99.90
8043;DHT22;4064;48.132;11.366;2022-11-20T08:42:49;6.20;99.90
8043;DHT22;4064;48.132;11.366;2022-11-20T08:45:17;6.30;99.90
8043;DHT22;4064;48.132;11.366;2022-11-20T08:47:43;6.40;99.90
8043;DHT22;4064;48.132;11.366;2022-11-20T08:50:11;6.60;99.90
8043;DHT22;4064;48.132;11.366;2022-11-20T08:52:37;6.70;99.90
8043;DHT22;4064;48.132;11.366;2022-11-20T08:55:03;6.80;99.90
8043;DHT22;4064;48.132;11.366;2022-11-20T08:57:32;6.80;99.90
8043;DHT22;4064;48.132;11.366;2022-11-20T08:59:58;6.90;99.90
8043;DHT22;4064;48.132;11.366;2022-11-20T09:02:24;6.80;99.90
8043;DHT22;4064;48.132;11.366;2022-11-20T09:04:49;6.80;99.90
8043;DHT22;4064;48.132;11.366;2022-11-20T09:07:15;6.80;99.90
8043;DHT22;4064;48.132;11.366;2022-11-20T09:09:41;6.80;99.90
8043;DHT22;4064;48.132;11.366;2022-11-20T09:12:06;6.90;99.90
8043;DHT22;4064;48.132;11.366;2022-11-20T09:14:32;6.90;99.90
8043;DHT22;4064;48.132;11.366;2022-11-20T09:16:59;7.00;99.90
8043;DHT22;4064;48.132;11.366;2022-11-20T09:19:25;6.90;99.90
8043;DHT22;4064;48.132;11.366;2022-11-20T09:21:51;6.90;99.90
8043;DHT22;4064;48.132;11.366;2022-11-20T09:24:16;6.90;99.90
8043;DHT22;4064;48.132;11.366;2022-11-20T09:26:42;6.90;99.90
8043;DHT22;4064;48.132;11.366;2022-11-20T09:29:08;6.90;99.90
8043;DHT22;4064;48.132;11.366;2022-11-20T09:31:33;6.90;99.90
8043;DHT22;4064;48.132;11.366;2022-11-20T09:33:59;6.90;99.90
8043;DHT22;4064;48.132;11.366;2022-11-20T09:36:24;6.80;99.90
8043;DHT22;4064;48.132;11.366;2022-11-20T09:38:50;6.80;99.90
8043;DHT22;4064;48.132;11.366;2022-11-20T09:49:59;7.30;99.90
8043;DHT22;4064;48.132;11.366;2022-11-20T09:52:41;7.60;99.90
8043;DHT22;4064;48.132;11.366;2022-11-20T09:55:11;8.20;99.90
8043;DHT22;4064;48.132;11.366;2022-11-20T09:57:45;8.80;99.90
8043;DHT22;4064;48.132;11.366;2022-11-20T10:00:13;9.10;99.90
8043;DHT22;4064;48.132;11.366;2022-11-20T10:03:41;9.20;99.90
8043;DHT22;4064;48.132;11.366;2022-11-20T10:05:54;9.30;99.90
8043;DHT22;4064;48.132;11.366;2022-11-20T10:08:24;9.60;99.90
8043;DHT22;4064;48.132;11.366;2022-11-20T10:14:12;9.80;99.90
8043;DHT22;4064;48.132;11.366;2022-11-20T10:27:56;9.80;99.90
8043;DHT22;4064;48.132;11.366;2022-11-20T10:30:25;9.90;99.90
8043;DHT22;4064;48.132;11.366;2022-11-20T10:33:19;10.20;99.90
8043;DHT22;4064;48.132;11.366;2022-11-20T10:36:17;10.20;99.90
8043;DHT22;4064;48.132;11.366;2022-11-20T10:41:49;9.80;99.60
8043;DHT22;4064;48.132;11.366;2022-11-20T10:44:19;9.50;99.70
8043;DHT22;4064;48.132;11.366;2022-11-20T10:47:05;9.40;99.90
8043;DHT22;4064;48.132;11.366;2022-11-20T10:49:32;9.30;99.90
8043;DHT22;4064;48.132;11.366;2022-11-20T11:00:25;9.30;99.90
8043;DHT22;4064;48.132;11.366;2022-11-20T11:02:52;9.20;99.40
8043;DHT22;4064;48.132;11.366;2022-11-20T11:05:39;9.00;99.90
8043;DHT22;4064;48.132;11.366;2022-11-20T11:08:10;9.00;99.90
8043;DHT22;4064;48.132;11.366;2022-11-20T11:10:48;9.00;99.90
8043;DHT22;4064;48.132;11.366;2022-11-20T11:13:27;8.90;99.90
8043;DHT22;4064;48.132;11.366;2022-11-20T11:15:54;8.90;99.90
8043;DHT22;4064;48.132;11.366;2022-11-20T11:18:31;8.80;99.90
8043;DHT22;4064;48.132;11.366;2022-11-20T11:21:00;8.80;99.90
8043;DHT22;4064;48.132;11.366;2022-11-20T11:23:34;8.60;99.90
8043;DHT22;4064;48.132;11.366;2022-11-20T11:26:04;8.50;99.90
8043;DHT22;4064;48.132;11.366;2022-11-20T11:28:30;8.40;99.90
8043;DHT22;4064;48.132;11.366;2022-11-20T11:30:56;8.30;99.90
8043;DHT22;4064;48.132;11.366;2022-11-20T11:33:24;8.30;99.90
8043;DHT22;4064;48.132;11.366;2022-11-20T11:35:52;8.30;99.90
8043;DHT22;4064;48.132;11.366;2022-11-20T11:38:28;8.30;99.90
8043;DHT22;4064;48.132;11.366;2022-11-20T11:40:56;8.40;99.90
8043;DHT22;4064;48.132;11.366;2022-11-20T11:43:25;8.40;99.90
8043;DHT22;4064;48.132;11.366;2022-11-20T11:54:26;8.70;99.80
8043;DHT22;4064;48.132;11.366;2022-11-20T11:56:54;8.70;99.90
8043;DHT22;4064;48.132;11.366;2022-11-20T12:02:57;8.10;99.90
8043;DHT22;4064;48.132;11.366;2022-11-20T12:10:53;7.40;99.90
8043;DHT22;4064;48.132;11.366;2022-11-20T12:15:58;7.30;99.90
8043;DHT22;4064;48.132;11.366;2022-11-20T12:18:25;7.10;99.90
8043;DHT22;4064;48.132;11.366;2022-11-20T12:26:40;6.60;99.90
8043;DHT22;4064;48.132;11.366;2022-11-20T12:29:38;6.60;99.90
8043;DHT22;4064;48.132;11.366;2022-11-20T12:42:52;6.60;99.90
8043;DHT22;4064;48.132;11.366;2022-11-20T12:45:59;6.70;99.90
8043;DHT22;4064;48.132;11.366;2022-11-20T12:51:29;6.70;99.90
8043;DHT22;4064;48.132;11.366;2022-11-20T12:56:53;6.60;99.90
8043;DHT22;4064;48.132;11.366;2022-11-20T12:59:46;6.60;99.90
8043;DHT22;4064;48.132;11.366;2022-11-20T13:07:54;6.50;99.90
8043;DHT22;4064;48.132;11.366;2022-11-20T13:10:46;6.50;99.90
8043;DHT22;4064;48.132;11.366;2022-11-20T13:13:26;6.40;99.90
8043;DHT22;4064;48.132;11.366;2022-11-20T13:16:06;6.30;99.90
8043;DHT22;4064;48.132;11.366;2022-11-20T13:18:37;6.20;99.90
8043;DHT22;4064;48.132;11.366;2022-11-20T13:21:15;6.20;99.90
8043;DHT22;4064;48.132;11.366;2022-11-20T13:23:41;6.10;99.90
8043;DHT22;4064;48.132;11.366;2022-11-20T13:26:17;6.10;99.90
8043;DHT22;4064;48.132;11.366;2022-11-20T13:28:45;6.10;99.90
8043;DHT22;4064;48.132;11.366;2022-11-20T13:31:45;6.00;99.90
8043;DHT22;4064;48.132;11.366;2022-11-20T13:34:23;6.10;99.90
8043;DHT22;4064;48.132;11.366;2022-11-20T13:36:52;6.10;99.90
8043;DHT22;4064;48.132;11.366;2022-11-20T13:39:25;6.10;99.90
8043;DHT22;4064;48.132;11.366;2022-11-20T13:42:00;6.10;99.90
8043;DHT22;4064;48.132;11.366;2022-11-20T13:44:42;6.10;99.90
8043;DHT22;4064;48.132;11.366;2022-11-20T13:47:26;6.10;99.90
8043;DHT22;4064;48.132;11.366;2022-11-20T13:49:53;6.10;99.90
8043;DHT22;4064;48.132;11.366;2022-11-20T13:55:42;6.10;99.90
8043;DHT22;4064;48.132;11.366;2022-11-20T13:58:40;6.00;99.90
8043;DHT22;4064;48.132;11.366;2022-11-20T14:01:10;6.10;99.90
8043;DHT22;4064;48.132;11.366;2022-11-20T14:03:36;6.10;99.90
8043;DHT22;4064;48.132;11.366;2022-11-20T14:06:10;6.10;99.90
8043;DHT22;4064;48.132;11.366;2022-11-20T14:08:44;6.10;99.90
8043;DHT22;4064;48.132;11.366;2022-11-20T14:11:18;6.20;99.90
8043;DHT22;4064;48.132;11.366;2022-11-20T14:14:13;6.30;99.90
8043;DHT22;4064;48.132;11.366;2022-11-20T14:16:40;6.30;99.90
8043;DHT22;4064;48.132;11.366;2022-11-20T14:22:23;6.30;99.90
8043;DHT22;4064;48.132;11.366;2022-11-20T14:25:01;6.30;99.90
8043;DHT22;4064;48.132;11.366;2022-11-20T14:27:27;6.30;99.90
8043;DHT22;4064;48.132;11.366;2022-11-20T14:29:53;6.30;99.90
8043;DHT22;4064;48.132;11.366;2022-11-20T14:32:24;6.20;99.90
8043;DHT22;4064;48.132;11.366;2022-11-20T14:34:51;6.20;99.90
8043;DHT22;4064;48.132;11.366;2022-11-20T14:37:20;6.20;99.90
8043;DHT22;4064;48.132;11.366;2022-11-20T14:39:55;6.10;99.90
8043;DHT22;4064;48.132;11.366;2022-11-20T14:42:23;6.10;99.90
8043;DHT22;4064;48.132;11.366;2022-11-20T14:44:50;6.00;99.90
8043;DHT22;4064;48.132;11.366;2022-11-20T14:47:25;6.00;99.90
8043;DHT22;4064;48.132;11.366;2022-11-20T14:49:52;6.00;99.90
8043;DHT22;4064;48.132;11.366;2022-11-20T14:52:21;6.00;99.90
8043;DHT22;4064;48.132;11.366;2022-11-20T14:54:49;6.00;99.90
8043;DHT22;4064;48.132;11.366;2022-11-20T14:57:35;6.00;99.90
8043;DHT22;4064;48.132;11.366;2022-11-20T15:02:41;5.90;99.90
8043;DHT22;4064;48.132;11.366;2022-11-20T15:05:07;5.90;99.90
8043;DHT22;4064;48.132;11.366;2022-11-20T15:07:35;5.90;99.90
8043;DHT22;4064;48.132;11.366;2022-11-20T15:10:13;5.90;99.90
8043;DHT22;4064;48.132;11.366;2022-11-20T15:12:55;5.80;99.90
8043;DHT22;4064;48.132;11.366;2022-11-20T15:15:32;5.80;99.90
8043;DHT22;4064;48.132;11.366;2022-11-20T15:17:59;5.80;99.90
8043;DHT22;4064;48.132;11.366;2022-11-20T15:20:30;5.80;99.90
8043;DHT22;4064;48.132;11.366;2022-11-20T15:22:56;5.80;99.90
8043;DHT22;4064;48.132;11.366;2022-11-20T15:25:22;5.80;99.90
8043;DHT22;4064;48.132;11.366;2022-11-20T15:27:54;5.70;99.90
8043;DHT22;4064;48.132;11.366;2022-11-20T15:30:21;5.70;99.90
8043;DHT22;4064;48.132;11.366;2022-11-20T15:32:47;5.60;99.90
8043;DHT22;4064;48.132;11.366;2022-11-20T15:35:14;5.60;99.90
8043;DHT22;4064;48.132;11.366;2022-11-20T15:37:40;5.50;99.90
8043;DHT22;4064;48.132;11.366;2022-11-20T15:40:07;5.40;99.90
8043;DHT22;4064;48.132;11.366;2022-11-20T15:42:33;5.40;99.90
8043;DHT22;4064;48.132;11.366;2022-11-20T15:44:59;5.30;99.90
8043;DHT22;4064;48.132;11.366;2022-11-20T15:47:31;5.20;99.90
8043;DHT22;4064;48.132;11.366;2022-11-20T15:49:57;5.20;99.90
8043;DHT22;4064;48.132;11.366;2022-11-20T15:52:23;5.10;99.90
8043;DHT22;4064;48.132;11.366;2022-11-20T15:54:49;5.10;99.90
8043;DHT22;4064;48.132;11.366;2022-11-20T15:57:14;5.00;99.90
8043;DHT22;4064;48.132;11.366;2022-11-20T15:59:40;4.90;99.90
8043;DHT22;4064;48.132;11.366;2022-11-20T16:02:11;4.90;99.90
8043;DHT22;4064;48.132;11.366;2022-11-20T16:04:37;4.80;99.90
8043;DHT22;4064;48.132;11.366;2022-11-20T16:07:03;4.80;99.90
8043;DHT22;4064;48.132;11.366;2022-11-20T16:09:29;4.70;99.90
8043;DHT22;4064;48.132;11.366;2022-11-20T16:11:54;4.60;99.90
8043;DHT22;4064;48.132;11.366;2022-11-20T16:14:20;4.60;99.90
8043;DHT22;4064;48.132;11.366;2022-11-20T16:17:04;4.50;99.90
8043;DHT22;4064;48.132;11.366;2022-11-20T16:19:30;4.50;99.90
8043;DHT22;4064;48.132;11.366;2022-11-20T16:21:57;4.40;99.90
8043;DHT22;4064;48.132;11.366;2022-11-20T16:24:23;4.40;99.90
8043;DHT22;4064;48.132;11.366;2022-11-20T16:26:48;4.30;99.90
8043;DHT22;4064;48.132;11.366;2022-11-20T16:29:14;4.30;99.90
8043;DHT22;4064;48.132;11.366;2022-11-20T16:31:40;4.30;99.90
8043;DHT22;4064;48.132;11.366;2022-11-20T16:34:07;4.30;99.90
8043;DHT22;4064;48.132;11.366;2022-11-20T16:36:33;4.30;99.90
8043;DHT22;4064;48.132;11.366;2022-11-20T16:39:02;4.30;99.90
8043;DHT22;4064;48.132;11.366;2022-11-20T16:41:31;4.30;99.90
8043;DHT22;4064;48.132;11.366;2022-11-20T16:43:58;4.20;99.90
8043;DHT22;4064;48.132;11.366;2022-11-20T16:46:26;4.20;99.90
8043;DHT22;4064;48.132;11.366;2022-11-20T16:48:53;4.10;99.90
8043;DHT22;4064;48.132;11.366;2022-11-20T16:51:19;4.10;99.90
8043;DHT22;4064;48.132;11.366;2022-11-20T16:53:45;4.00;99.90
8043;DHT22;4064;48.132;11.366;2022-11-20T16:56:11;4.00;99.90
8043;DHT22;4064;48.132;11.366;2022-11-20T16:58:38;3.90;99.90
8043;DHT22;4064;48.132;11.366;2022-11-20T17:01:08;3.90;99.90
8043;DHT22;4064;48.132;11.366;2022-11-20T17:03:39;3.90;99.90
8043;DHT22;4064;48.132;11.366;2022-11-20T17:06:15;3.90;99.90
8043;DHT22;4064;48.132;11.366;2022-11-20T17:08:42;3.80;99.90
8043;DHT22;4064;48.132;11.366;2022-11-20T17:11:09;3.80;99.90
8043;DHT22;4064;48.132;11.366;2022-11-20T17:13:36;3.80;99.90
8043;DHT22;4064;48.132;11.366;2022-11-20T17:16:04;3.80;99.90
8043;DHT22;4064;48.132;11.366;2022-11-20T17:18:30;3.80;99.90
8043;DHT22;4064;48.132;11.366;2022-11-20T17:20:57;3.70;99.90
8043;DHT22;4064;48.132;11.366;2022-11-20T17:23:27;3.70;99.90
8043;DHT22;4064;48.132;11.366;2022-11-20T17:28:38;3.70;99.90
8043;DHT22;4064;48.132;11.366;2022-11-20T17:31:15;3.60;99.90
8043;DHT22;4064;48.132;11.366;2022-11-20T17:33:47;3.60;99.90
8043;DHT22;4064;48.132;11.366;2022-11-20T17:36:15;3.60;99.90
8043;DHT22;4064;48.132;11.366;2022-11-20T17:38:42;3.50;99.90
8043;DHT22;4064;48.132;11.366;2022-11-20T17:41:10;3.50;99.90
8043;DHT22;4064;48.132;11.366;2022-11-20T17:43:37;3.40;99.90
8043;DHT22;4064;48.132;11.366;2022-11-20T17:46:10;3.40;99.90
8043;DHT22;4064;48.132;11.366;2022-11-20T17:48:40;3.40;99.90
8043;DHT22;4064;48.132;11.366;2022-11-20T17:51:19;3.30;99.90